Time;durP1;ratioP1;P1;durP2;ratioP2;P2;SDS_P1;SDS_P2;PMS_P1;PMS_P2;Temp;Humidity;BMP_temperature;BMP_pressure;BME280_temperature;BME280_humidity;BME280_pressure;Samples;Min_cycle;Max_cycle;Signal;HPM_P1;HPM_P2
2021/09/08 00:01:17;;;;;;;17.98;3.50;;;41.80;36.60;;;;;;5115790;27;20143;-49
2021/09/08 00:03:44;;;;;;;11.98;2.95;;;41.90;36.70;;;;;;5117873;27;20462;-48
2021/09/08 00:06:10;;;;;;;13.00;3.13;;;41.80;35.90;;;;;;5118013;27;20073;-47
2021/09/08 00:08:37;;;;;;;14.73;3.08;;;41.90;36.90;;;;;;5113967;27;20064;-46
2021/09/08 00:11:03;;;;;;;21.08;3.38;;;41.90;36.00;;;;;;5117694;27;20067;-49
2021/09/08 00:13:30;;;;;;;13.70;3.17;;;41.80;35.80;;;;;;5115722;27;20071;-49
2021/09/08 00:15:57;;;;;;;11.68;3.20;;;41.80;38.50;;;;;;5116115;27;20064;-48
2021/09/08 00:18:24;;;;;;;14.10;3.00;;;41.70;36.50;;;;;;5115568;27;20096;-51
2021/09/08 00:20:50;;;;;;;16.52;3.03;;;41.60;39.50;;;;;;5118090;27;20421;-50
2021/09/08 00:23:17;;;;;;;19.00;2.88;;;41.50;37.20;;;;;;5114833;27;20082;-46
2021/09/08 00:25:43;;;;;;;14.23;3.20;;;41.50;38.40;;;;;;5117522;27;20466;-47
2021/09/08 00:28:10;;;;;;;14.88;3.20;;;41.50;36.40;;;;;;5118327;27;20068;-50
2021/09/08 00:30:36;;;;;;;21.02;3.60;;;41.50;38.10;;;;;;5116930;27;20075;-50
2021/09/08 00:33:03;;;;;;;20.30;3.38;;;41.30;36.50;;;;;;5117038;27;20107;-54
2021/09/08 00:35:29;;;;;;;15.05;3.38;;;41.20;37.30;;;;;;5117400;27;20082;-48
2021/09/08 00:37:56;;;;;;;17.58;3.25;;;41.10;35.70;;;;;;5110205;27;20102;-51
2021/09/08 00:40:23;;;;;;;17.13;3.35;;;41.10;35.40;;;;;;5094476;27;20068;-51
2021/09/08 00:42:50;;;;;;;20.13;3.67;;;41.10;35.80;;;;;;5115035;27;20086;-47
2021/09/08 00:45:17;;;;;;;11.70;3.33;;;41.10;35.40;;;;;;5114190;27;20069;-50
2021/09/08 00:47:43;;;;;;;14.77;3.40;;;41.10;35.70;;;;;;5116688;27;20097;-48
2021/09/08 00:50:11;;;;;;;15.93;3.33;;;41.20;36.00;;;;;;5115913;27;20061;-49
2021/09/08 00:52:38;;;;;;;10.63;2.83;;;41.10;35.40;;;;;;5117251;27;20105;-48
2021/09/08 00:55:07;;;;;;;8.77;2.85;;;41.00;37.40;;;;;;5115420;27;20155;-53
2021/09/08 00:57:34;;;;;;;20.48;3.30;;;40.90;37.50;;;;;;5115307;27;20527;-49
2021/09/08 01:00:03;;;;;;;11.95;3.03;;;40.90;37.30;;;;;;5116525;27;20082;-54
2021/09/08 01:02:29;;;;;;;13.32;3.20;;;40.90;37.20;;;;;;5095898;27;20066;-49
2021/09/08 01:04:56;;;;;;;12.85;3.50;;;40.80;37.90;;;;;;5120442;27;20070;-54
2021/09/08 01:07:23;;;;;;;15.55;3.83;;;40.70;36.70;;;;;;5118193;27;20201;-50
2021/09/08 01:09:50;;;;;;;16.17;3.63;;;40.70;37.70;;;;;;5117100;27;20076;-51
2021/09/08 01:12:17;;;;;;;11.02;3.45;;;40.70;37.10;;;;;;5113170;27;20545;-51
2021/09/08 01:14:43;;;;;;;17.40;3.25;;;40.60;36.20;;;;;;5114624;27;20558;-47
2021/09/08 01:17:10;;;;;;;17.98;3.58;;;40.60;37.40;;;;;;5112672;27;20101;-48
2021/09/08 01:19:37;;;;;;;15.90;3.55;;;40.60;36.00;;;;;;5117758;27;20067;-50
2021/09/08 01:22:04;;;;;;;14.65;3.40;;;40.50;36.80;;;;;;5114862;27;20223;-50
2021/09/08 01:24:30;;;;;;;14.55;3.40;;;40.40;36.60;;;;;;5113368;27;20146;-54
2021/09/08 01:26:58;;;;;;;21.85;3.10;;;40.30;37.70;;;;;;5117280;27;20435;-50
2021/09/08 01:29:24;;;;;;;16.85;3.67;;;40.30;37.20;;;;;;5116823;27;20066;-48
2021/09/08 01:31:57;;;;;;;13.98;2.85;;;40.20;36.90;;;;;;5117007;27;20096;-48
2021/09/08 01:34:24;;;;;;;14.65;3.25;;;40.20;37.00;;;;;;5111195;27;20652;-50
2021/09/08 01:36:52;;;;;;;9.90;3.10;;;40.10;37.10;;;;;;5113249;27;20103;-52
2021/09/08 01:39:19;;;;;;;18.13;3.13;;;40.00;39.00;;;;;;5115988;27;20109;-50
2021/09/08 01:41:48;;;;;;;28.20;3.63;;;39.90;38.90;;;;;;5116367;27;20149;-50
2021/09/08 01:44:22;;;;;;;16.23;3.30;;;39.90;37.70;;;;;;5117781;27;20079;-45
2021/09/08 01:46:55;;;;;;;18.80;3.42;;;39.90;37.80;;;;;;5113930;27;20103;-45
2021/09/08 01:49:21;;;;;;;13.73;3.78;;;39.80;37.90;;;;;;5114150;27;20215;-49
2021/09/08 01:51:48;;;;;;;22.70;3.35;;;39.70;38.90;;;;;;5113828;27;20072;-46
2021/09/08 01:54:15;;;;;;;14.65;3.60;;;39.60;40.20;;;;;;5117611;27;20161;-49
2021/09/08 01:56:42;;;;;;;16.30;4.00;;;39.50;40.10;;;;;;5115124;27;20072;-49
2021/09/08 01:59:08;;;;;;;9.23;3.58;;;39.40;39.40;;;;;;5084786;27;20599;-51
2021/09/08 02:01:35;;;;;;;13.15;3.85;;;39.40;39.60;;;;;;5121387;27;20083;-45
2021/09/08 02:04:01;;;;;;;11.80;3.13;;;39.40;40.10;;;;;;5112897;27;20428;-45
2021/09/08 02:06:28;;;;;;;15.18;3.50;;;39.40;40.60;;;;;;5115940;27;20076;-45
2021/09/08 02:08:58;;;;;;;15.23;3.60;;;39.30;41.40;;;;;;5113983;28;20087;-44
2021/09/08 02:11:25;;;;;;;17.63;3.15;;;39.20;41.20;;;;;;5114504;27;20521;-48
2021/09/08 02:13:52;;;;;;;21.40;4.57;;;39.20;41.20;;;;;;5114062;28;20091;-51
2021/09/08 02:16:21;;;;;;;28.05;4.70;;;39.00;41.50;;;;;;5113099;27;20079;-45
2021/09/08 02:18:49;;;;;;;22.98;4.30;;;39.00;40.80;;;;;;5113999;27;20096;-46
2021/09/08 02:21:16;;;;;;;25.65;4.47;;;39.00;41.00;;;;;;5117183;28;20072;-46
2021/09/08 02:23:42;;;;;;;24.38;4.45;;;39.00;41.00;;;;;;5112307;28;20441;-47
2021/09/08 02:26:09;;;;;;;34.67;4.68;;;39.00;41.50;;;;;;5117482;28;20147;-44
2021/09/08 02:28:37;;;;;;;32.40;5.85;;;39.00;41.20;;;;;;5117973;28;20162;-44
2021/09/08 02:31:03;;;;;;;36.42;5.80;;;38.90;41.80;;;;;;5116397;28;20401;-49
2021/09/08 02:33:31;;;;;;;40.50;5.70;;;38.90;41.50;;;;;;5113924;28;20116;-47
2021/09/08 02:35:57;;;;;;;29.45;5.32;;;38.80;41.50;;;;;;5117418;28;20118;-47
2021/09/08 02:38:24;;;;;;;37.00;4.72;;;38.80;42.00;;;;;;5116624;28;20147;-48
2021/09/08 02:40:50;;;;;;;28.58;4.30;;;38.80;41.70;;;;;;5114633;28;20104;-47
2021/09/08 02:43:17;;;;;;;36.78;4.57;;;38.70;42.20;;;;;;5091297;28;20073;-46
2021/09/08 02:45:43;;;;;;;43.85;5.05;;;38.70;42.20;;;;;;5115640;28;20410;-45
2021/09/08 02:48:10;;;;;;;35.50;5.05;;;38.70;43.40;;;;;;5113466;28;20155;-47
2021/09/08 02:50:36;;;;;;;29.80;5.10;;;38.60;42.60;;;;;;5115520;28;20108;-45
2021/09/08 02:53:03;;;;;;;22.00;4.38;;;38.50;43.50;;;;;;5117036;28;20150;-48
2021/09/08 02:55:30;;;;;;;27.73;4.72;;;38.50;43.10;;;;;;5119676;28;20084;-49
2021/09/08 02:57:56;;;;;;;26.02;5.60;;;38.30;43.40;;;;;;5112275;28;20145;-46
2021/09/08 03:00:23;;;;;;;30.10;5.40;;;38.30;43.60;;;;;;5114753;28;20159;-45
2021/09/08 03:02:49;;;;;;;31.67;6.40;;;38.30;44.10;;;;;;5120276;28;20079;-45
2021/09/08 03:05:16;;;;;;;25.30;7.30;;;38.20;43.50;;;;;;5112824;28;20073;-48
2021/09/08 03:07:42;;;;;;;37.67;7.95;;;38.10;43.60;;;;;;5113268;28;20080;-48
2021/09/08 03:10:09;;;;;;;31.02;6.50;;;38.00;43.70;;;;;;5117126;28;20072;-45
2021/09/08 03:12:35;;;;;;;30.67;7.57;;;38.00;43.90;;;;;;5112099;28;20076;-45
2021/09/08 03:15:02;;;;;;;27.15;5.80;;;37.90;43.90;;;;;;5113862;28;20432;-44
2021/09/08 03:17:29;;;;;;;26.23;5.55;;;37.80;44.00;;;;;;5113065;28;20493;-45
2021/09/08 03:19:55;;;;;;;23.77;6.03;;;37.70;44.40;;;;;;5123583;27;20500;-45
2021/09/08 03:22:22;;;;;;;23.67;7.07;;;37.60;44.60;;;;;;5117218;27;20069;-44
2021/09/08 03:24:49;;;;;;;28.95;8.35;;;37.60;45.00;;;;;;5118475;27;20598;-46
2021/09/08 03:27:16;;;;;;;22.08;8.60;;;37.50;45.30;;;;;;5118001;27;20080;-44
2021/09/08 03:29:42;;;;;;;31.30;10.82;;;37.40;45.70;;;;;;5117316;27;20104;-46
2021/09/08 03:32:08;;;;;;;27.85;9.80;;;37.30;45.60;;;;;;5113729;27;21106;-49
2021/09/08 03:34:35;;;;;;;32.85;10.13;;;37.30;45.70;;;;;;5118600;27;20160;-48
2021/09/08 03:37:02;;;;;;;26.45;9.60;;;37.20;45.80;;;;;;5117783;27;20089;-48
2021/09/08 03:39:28;;;;;;;30.05;9.05;;;37.20;45.80;;;;;;5115565;27;20076;-45
2021/09/08 03:41:55;;;;;;;27.20;7.70;;;37.10;45.80;;;;;;5121994;27;20077;-46
2021/09/08 03:44:21;;;;;;;26.70;7.90;;;37.00;45.80;;;;;;5119189;27;20227;-46
2021/09/08 03:46:48;;;;;;;26.58;7.72;;;37.00;45.70;;;;;;5122325;27;20103;-46
2021/09/08 03:49:14;;;;;;;31.25;7.97;;;36.90;45.80;;;;;;5125774;27;20075;-47
2021/09/08 03:51:41;;;;;;;32.38;8.85;;;36.90;45.80;;;;;;5096000;27;20543;-47
2021/09/08 03:54:07;;;;;;;42.38;9.65;;;36.90;46.10;;;;;;5120969;27;20554;-49
2021/09/08 03:56:34;;;;;;;45.13;10.45;;;36.90;46.10;;;;;;5117903;27;20080;-48
2021/09/08 03:59:00;;;;;;;44.72;10.25;;;36.80;46.40;;;;;;5118152;27;20178;-44
2021/09/08 04:01:27;;;;;;;41.25;9.48;;;36.80;46.40;;;;;;5121820;27;20166;-48
2021/09/08 04:03:53;;;;;;;26.67;7.68;;;36.70;46.50;;;;;;5120726;27;21346;-47
2021/09/08 04:06:20;;;;;;;36.35;7.13;;;36.60;46.60;;;;;;5116985;27;20072;-46
2021/09/08 04:08:46;;;;;;;24.00;6.70;;;36.60;46.80;;;;;;5118700;27;20072;-46
2021/09/08 04:11:14;;;;;;;15.93;5.35;;;36.50;46.80;;;;;;5116286;27;20072;-50
2021/09/08 04:13:41;;;;;;;24.25;5.93;;;36.50;47.00;;;;;;5116991;27;20446;-46
2021/09/08 04:16:07;;;;;;;26.50;6.72;;;36.50;47.00;;;;;;5115885;27;20125;-48
2021/09/08 04:18:33;;;;;;;28.05;7.50;;;36.40;47.00;;;;;;5119430;27;20096;-49
2021/09/08 04:21:00;;;;;;;31.83;7.82;;;36.40;47.20;;;;;;5117432;27;20079;-47
2021/09/08 04:23:26;;;;;;;20.63;8.88;;;36.40;47.20;;;;;;5118556;27;20120;-46
2021/09/08 04:25:53;;;;;;;28.50;9.70;;;36.20;47.20;;;;;;5116621;27;21157;-45
2021/09/08 04:28:19;;;;;;;31.23;11.80;;;36.20;47.20;;;;;;5117687;27;20140;-47
2021/09/08 04:30:46;;;;;;;38.92;12.50;;;36.20;47.20;;;;;;5114912;27;20072;-50
2021/09/08 04:33:12;;;;;;;30.05;11.70;;;36.20;47.20;;;;;;5118582;27;20104;-48
2021/09/08 04:35:40;;;;;;;38.20;12.57;;;36.10;47.00;;;;;;5118628;27;20096;-48
2021/09/08 04:38:06;;;;;;;31.58;11.60;;;36.10;47.00;;;;;;5099674;28;20119;-49
2021/09/08 04:40:33;;;;;;;40.58;13.15;;;36.00;47.10;;;;;;5117369;27;20072;-48
2021/09/08 04:43:01;;;;;;;35.92;11.68;;;36.00;47.20;;;;;;5116161;27;20076;-47
2021/09/08 04:45:28;;;;;;;35.47;10.88;;;36.00;47.50;;;;;;5116325;27;20072;-48
2021/09/08 04:47:55;;;;;;;45.00;11.15;;;36.00;47.10;;;;;;5114722;27;20435;-50
2021/09/08 04:50:21;;;;;;;29.67;10.07;;;35.90;47.00;;;;;;5113905;27;20072;-46
2021/09/08 04:52:48;;;;;;;31.70;9.80;;;35.90;46.90;;;;;;5116434;27;20163;-49
2021/09/08 04:55:14;;;;;;;31.30;10.07;;;35.80;46.80;;;;;;5117176;27;20071;-46
2021/09/08 04:57:41;;;;;;;30.05;10.02;;;35.70;46.90;;;;;;5115848;27;20179;-49
2021/09/08 05:00:08;;;;;;;24.50;10.63;;;35.70;47.00;;;;;;5118943;27;20536;-45
2021/09/08 05:02:37;;;;;;;26.80;10.18;;;35.70;47.10;;;;;;5116144;27;20080;-47
2021/09/08 05:05:04;;;;;;;23.40;9.82;;;35.60;47.00;;;;;;5116066;27;20513;-47
2021/09/08 05:07:30;;;;;;;31.75;8.98;;;35.60;47.10;;;;;;5116832;27;20124;-49
2021/09/08 05:09:57;;;;;;;27.67;8.48;;;35.60;47.20;;;;;;5111018;27;20069;-47
2021/09/08 05:12:23;;;;;;;29.23;8.38;;;35.60;47.10;;;;;;5113325;27;20080;-50
2021/09/08 05:14:50;;;;;;;24.77;7.25;;;35.60;47.20;;;;;;5118902;27;20529;-50
2021/09/08 05:17:16;;;;;;;22.40;5.57;;;35.50;47.20;;;;;;5110613;27;20495;-46
2021/09/08 05:19:43;;;;;;;19.73;6.20;;;35.50;47.20;;;;;;5118123;27;20497;-49
2021/09/08 05:22:10;;;;;;;13.52;4.90;;;35.40;47.70;;;;;;5113485;27;20076;-50
2021/09/08 05:24:37;;;;;;;13.57;4.57;;;35.30;47.90;;;;;;5114559;27;20080;-47
2021/09/08 05:27:03;;;;;;;17.17;4.32;;;35.30;47.30;;;;;;5116270;27;20128;-47
2021/09/08 05:29:30;;;;;;;13.57;4.72;;;35.20;47.90;;;;;;5110774;27;20214;-51
2021/09/08 05:31:56;;;;;;;15.48;5.03;;;35.10;47.40;;;;;;5119437;27;20525;-48
2021/09/08 05:34:23;;;;;;;18.35;5.10;;;35.10;47.50;;;;;;5114068;27;20219;-50
2021/09/08 05:36:50;;;;;;;13.77;6.25;;;35.10;47.40;;;;;;5119050;27;20078;-46
2021/09/08 05:39:17;;;;;;;22.50;7.05;;;35.10;47.60;;;;;;5098879;27;20167;-48
2021/09/08 05:41:43;;;;;;;22.20;7.55;;;35.10;47.40;;;;;;5111573;27;20163;-47
2021/09/08 05:44:10;;;;;;;19.92;7.40;;;35.10;47.50;;;;;;5096882;28;20436;-45
2021/09/08 05:46:37;;;;;;;20.73;7.13;;;35.10;47.50;;;;;;5100703;27;20087;-47
2021/09/08 05:49:04;;;;;;;21.80;8.00;;;35.10;47.50;;;;;;5116185;27;20108;-48
2021/09/08 05:51:30;;;;;;;22.17;8.50;;;35.10;47.50;;;;;;5117445;27;20083;-47
2021/09/08 05:53:57;;;;;;;18.50;7.45;;;35.10;47.50;;;;;;5115818;27;20072;-48
2021/09/08 05:56:23;;;;;;;21.42;8.45;;;35.10;47.60;;;;;;5110982;27;20076;-50
2021/09/08 05:58:50;;;;;;;24.15;8.75;;;35.00;47.70;;;;;;5116143;27;20092;-49
2021/09/08 06:01:16;;;;;;;33.97;9.25;;;34.90;47.40;;;;;;5114104;27;20078;-46
2021/09/08 06:03:43;;;;;;;22.05;9.00;;;34.90;47.80;;;;;;5112646;27;20076;-50
2021/09/08 06:06:10;;;;;;;22.75;7.82;;;34.90;47.70;;;;;;5096526;27;20597;-48
2021/09/08 06:08:36;;;;;;;21.40;7.63;;;34.90;47.60;;;;;;5114235;27;20100;-48
2021/09/08 06:11:03;;;;;;;23.20;7.75;;;34.90;47.80;;;;;;5115182;27;20441;-49
2021/09/08 06:13:29;;;;;;;20.25;7.78;;;34.90;48.20;;;;;;5115831;27;20484;-49
2021/09/08 06:15:56;;;;;;;20.30;7.30;;;34.90;47.70;;;;;;5113315;27;20512;-49
2021/09/08 06:18:22;;;;;;;23.55;6.93;;;34.90;47.80;;;;;;5117573;27;20096;-45
2021/09/08 06:20:48;;;;;;;17.77;6.63;;;34.80;48.10;;;;;;5116258;28;20079;-46
2021/09/08 06:23:16;;;;;;;23.10;7.80;;;34.80;48.90;;;;;;5116488;28;20113;-48
2021/09/08 06:25:42;;;;;;;29.80;8.05;;;34.70;48.30;;;;;;5115251;28;20076;-48
2021/09/08 06:28:09;;;;;;;22.80;7.45;;;34.60;48.10;;;;;;5110309;28;20104;-49
2021/09/08 06:30:35;;;;;;;29.35;9.20;;;34.60;48.30;;;;;;5112734;28;20147;-49
2021/09/08 06:33:02;;;;;;;18.83;8.43;;;34.60;48.10;;;;;;5114418;28;20072;-46
2021/09/08 06:35:28;;;;;;;16.60;7.47;;;34.50;48.90;;;;;;5113970;28;20072;-47
2021/09/08 06:37:55;;;;;;;20.77;7.63;;;34.50;49.30;;;;;;5113640;28;20103;-47
2021/09/08 06:40:21;;;;;;;23.10;6.40;;;34.40;49.30;;;;;;5117000;28;20110;-50
2021/09/08 06:42:48;;;;;;;17.58;6.97;;;34.20;49.30;;;;;;5116238;28;20099;-48
2021/09/08 06:45:16;;;;;;;19.88;6.93;;;34.20;49.90;;;;;;5114498;28;20141;-49
2021/09/08 06:47:43;;;;;;;13.57;6.28;;;34.20;49.90;;;;;;5114253;28;20425;-46
2021/09/08 06:50:10;;;;;;;18.45;7.40;;;34.20;49.70;;;;;;5113569;28;20084;-45
2021/09/08 06:52:37;;;;;;;21.00;7.70;;;34.20;49.40;;;;;;5112730;28;20082;-47
2021/09/08 06:55:04;;;;;;;19.98;7.20;;;34.20;50.20;;;;;;5116365;27;20111;-46
2021/09/08 06:57:31;;;;;;;19.63;6.75;;;34.20;50.30;;;;;;5121086;27;20191;-47
2021/09/08 06:59:58;;;;;;;20.02;7.03;;;34.10;49.70;;;;;;5113586;27;20463;-50
2021/09/08 07:02:24;;;;;;;18.27;6.50;;;34.10;50.00;;;;;;5118907;27;20091;-48
2021/09/08 07:04:51;;;;;;;19.92;7.05;;;34.00;50.60;;;;;;5120122;27;20215;-49
2021/09/08 07:07:20;;;;;;;20.38;6.75;;;33.90;50.50;;;;;;5116241;27;20100;-48
2021/09/08 07:09:48;;;;;;;15.05;7.00;;;33.80;50.80;;;;;;5121119;27;20529;-47
2021/09/08 07:12:14;;;;;;;21.58;6.57;;;33.80;51.00;;;;;;5117184;27;20069;-49
2021/09/08 07:14:41;;;;;;;24.38;7.38;;;33.80;50.90;;;;;;5119063;27;20081;-49
2021/09/08 07:17:09;;;;;;;14.07;6.43;;;33.80;51.20;;;;;;5097913;27;20203;-49
2021/09/08 07:19:35;;;;;;;15.70;6.47;;;33.70;51.40;;;;;;5117981;27;20170;-45
2021/09/08 07:22:05;;;;;;;23.77;6.38;;;33.70;51.50;;;;;;5117668;27;20179;-49
2021/09/08 07:24:31;;;;;;;19.08;6.90;;;33.60;51.80;;;;;;5116705;27;20081;-51
2021/09/08 07:26:58;;;;;;;22.63;7.85;;;33.60;51.30;;;;;;5117425;27;20103;-48
2021/09/08 07:29:25;;;;;;;16.60;6.43;;;33.50;51.60;;;;;;5119161;27;20094;-51
2021/09/08 07:31:52;;;;;;;18.42;6.47;;;33.50;51.70;;;;;;5118856;27;20113;-48
2021/09/08 07:34:19;;;;;;;22.50;7.05;;;33.50;51.60;;;;;;5114888;27;20120;-50
2021/09/08 07:36:46;;;;;;;26.85;6.88;;;33.40;52.10;;;;;;5115458;27;20125;-48
2021/09/08 07:39:12;;;;;;;26.25;6.85;;;33.40;53.30;;;;;;5114877;27;20118;-51
2021/09/08 07:41:39;;;;;;;17.65;6.43;;;33.30;52.80;;;;;;5116941;27;20474;-53
2021/09/08 07:44:06;;;;;;;23.60;6.57;;;33.30;53.30;;;;;;5113888;27;20087;-48
2021/09/08 07:46:32;;;;;;;20.52;6.30;;;33.20;53.70;;;;;;5114617;27;20103;-47
2021/09/08 07:48:58;;;;;;;19.15;5.35;;;33.20;53.50;;;;;;5118109;27;20107;-46
2021/09/08 07:51:25;;;;;;;14.65;5.13;;;33.20;53.70;;;;;;5118475;27;20185;-49
2021/09/08 07:53:52;;;;;;;27.88;6.07;;;33.20;53.70;;;;;;5118877;27;20163;-49
2021/09/08 07:56:19;;;;;;;17.90;4.78;;;33.10;53.60;;;;;;5112725;27;20073;-47
2021/09/08 07:58:45;;;;;;;14.70;4.90;;;33.10;53.40;;;;;;5115532;27;20096;-51
2021/09/08 08:01:12;;;;;;;17.13;4.75;;;33.10;54.10;;;;;;5118054;27;20159;-46
2021/09/08 08:03:39;;;;;;;22.73;4.32;;;33.10;53.80;;;;;;5114955;27;20068;-49
2021/09/08 08:06:05;;;;;;;14.98;4.70;;;33.00;53.80;;;;;;5117216;27;20085;-48
2021/09/08 08:08:32;;;;;;;19.85;4.68;;;33.00;53.70;;;;;;5119924;27;20516;-47
2021/09/08 08:10:58;;;;;;;13.77;4.85;;;33.00;53.90;;;;;;5118807;27;20125;-48
2021/09/08 08:13:25;;;;;;;15.10;4.80;;;33.00;54.20;;;;;;5120030;27;20701;-47
2021/09/08 08:15:51;;;;;;;14.20;4.85;;;33.00;54.00;;;;;;5116194;27;20525;-48
2021/09/08 08:18:18;;;;;;;13.48;4.72;;;33.00;54.30;;;;;;5114669;27;20464;-48
2021/09/08 08:20:45;;;;;;;18.45;4.47;;;32.90;54.30;;;;;;5113257;27;20079;-48
2021/09/08 08:23:12;;;;;;;14.68;4.68;;;32.80;54.60;;;;;;5115503;27;20114;-50
2021/09/08 08:25:39;;;;;;;20.17;4.82;;;32.90;54.60;;;;;;5115242;27;20073;-46
2021/09/08 08:28:06;;;;;;;15.95;4.80;;;32.80;54.70;;;;;;5097955;27;20092;-47
2021/09/08 08:30:34;;;;;;;14.52;4.93;;;32.80;54.50;;;;;;5113512;27;20115;-49
2021/09/08 08:33:01;;;;;;;20.38;5.63;;;32.70;54.50;;;;;;5116021;27;20080;-46
2021/09/08 08:35:28;;;;;;;14.60;4.75;;;32.60;54.60;;;;;;5117241;27;20548;-49
2021/09/08 08:37:55;;;;;;;20.58;5.38;;;32.70;55.10;;;;;;5112859;27;20225;-51
2021/09/08 08:40:22;;;;;;;19.42;4.75;;;32.70;55.20;;;;;;5094994;27;20072;-48
2021/09/08 08:42:50;;;;;;;21.23;4.70;;;32.60;55.40;;;;;;5111943;27;20073;-50
2021/09/08 08:45:16;;;;;;;16.73;5.22;;;32.60;55.40;;;;;;5115157;27;20472;-52
2021/09/08 08:47:44;;;;;;;19.80;5.03;;;32.50;55.70;;;;;;5118007;27;20402;-52
2021/09/08 08:50:13;;;;;;;20.70;4.95;;;32.50;55.80;;;;;;5115070;27;20072;-49
2021/09/08 08:52:41;;;;;;;27.50;5.18;;;32.50;55.30;;;;;;5113948;27;20596;-47
2021/09/08 08:55:08;;;;;;;16.30;5.13;;;32.50;55.30;;;;;;5113891;27;20079;-47
2021/09/08 08:57:35;;;;;;;22.42;4.82;;;32.50;56.80;;;;;;5117533;27;20228;-45
2021/09/08 09:00:03;;;;;;;17.08;5.05;;;32.40;56.50;;;;;;5116573;27;20106;-45
2021/09/08 09:02:31;;;;;;;22.02;4.97;;;32.40;56.60;;;;;;5117032;27;20084;-46
2021/09/08 09:05:00;;;;;;;24.45;5.50;;;32.40;56.20;;;;;;5116488;27;20072;-49
2021/09/08 09:07:30;;;;;;;20.17;5.05;;;32.40;56.10;;;;;;5114859;27;20076;-46
2021/09/08 09:10:02;;;;;;;19.73;5.10;;;32.40;56.30;;;;;;5115887;27;20503;-50
2021/09/08 09:12:33;;;;;;;19.15;4.43;;;32.40;56.00;;;;;;5113560;27;20115;-49
2021/09/08 09:15:02;;;;;;;20.98;5.30;;;32.30;57.10;;;;;;5118309;27;20078;-45
2021/09/08 09:17:30;;;;;;;14.40;4.80;;;32.20;57.20;;;;;;5114082;27;20166;-48
2021/09/08 09:20:00;;;;;;;14.60;5.07;;;32.20;56.70;;;;;;5117318;27;20107;-50
2021/09/08 09:22:48;;;;;;;19.45;4.70;;;32.20;56.90;;;;;;5111318;27;20124;-46
2021/09/08 09:25:24;;;;;;;26.15;4.97;;;32.10;56.70;;;;;;5114770;27;20136;-49
2021/09/08 09:28:00;;;;;;;19.27;5.67;;;32.00;57.20;;;;;;5111528;27;20536;-47
2021/09/08 09:30:30;;;;;;;19.33;5.90;;;32.00;57.40;;;;;;5114048;27;20103;-45
2021/09/08 09:33:00;;;;;;;25.85;6.25;;;32.00;57.40;;;;;;5111146;27;20080;-45
2021/09/08 09:35:30;;;;;;;22.50;6.75;;;32.00;57.60;;;;;;5111935;27;20412;-46
2021/09/08 09:37:59;;;;;;;23.58;7.47;;;32.00;57.70;;;;;;5112348;27;20592;-46
2021/09/08 09:40:31;;;;;;;32.58;8.25;;;32.00;57.80;;;;;;5116501;27;20446;-47
2021/09/08 09:43:07;;;;;;;27.10;8.23;;;31.90;57.80;;;;;;5115446;27;20112;-46
2021/09/08 09:45:35;;;;;;;35.97;8.43;;;31.90;57.50;;;;;;5115599;27;20098;-47
2021/09/08 09:48:03;;;;;;;36.22;8.27;;;31.90;57.70;;;;;;5109730;27;20073;-46
2021/09/08 09:50:30;;;;;;;32.92;8.95;;;31.90;57.90;;;;;;5112512;27;20076;-46
2021/09/08 09:52:56;;;;;;;27.38;9.20;;;31.90;58.00;;;;;;5110487;27;20080;-48
2021/09/08 09:55:25;;;;;;;30.58;9.38;;;31.90;57.90;;;;;;5111080;27;20076;-47
2021/09/08 09:57:52;;;;;;;33.30;9.18;;;31.90;58.10;;;;;;5113385;27;20096;-49
2021/09/08 10:00:20;;;;;;;34.28;9.68;;;31.90;58.50;;;;;;5096700;27;20416;-47
2021/09/08 10:02:48;;;;;;;31.10;9.52;;;31.80;58.60;;;;;;5113082;27;20080;-47
2021/09/08 10:05:14;;;;;;;26.77;9.27;;;31.80;58.80;;;;;;5116482;27;20091;-46
2021/09/08 10:07:42;;;;;;;26.77;7.65;;;31.80;58.90;;;;;;5116568;27;20440;-46
2021/09/08 10:10:15;;;;;;;30.85;8.57;;;31.80;58.90;;;;;;5114662;27;20080;-46
2021/09/08 10:13:05;;;;;;;32.78;8.15;;;31.80;59.40;;;;;;5114483;27;20095;-46
2021/09/08 10:15:32;;;;;;;31.23;8.57;;;31.80;59.20;;;;;;5111888;27;20088;-51
2021/09/08 10:18:12;;;;;;;27.77;8.15;;;31.80;59.60;;;;;;5114098;27;20095;-47
2021/09/08 10:20:38;;;;;;;32.15;8.02;;;31.80;59.70;;;;;;5113040;27;20080;-49
2021/09/08 10:23:10;;;;;;;25.73;8.52;;;31.80;60.00;;;;;;5113261;28;20080;-48
2021/09/08 10:25:42;;;;;;;25.55;8.27;;;31.80;60.00;;;;;;5110423;28;20076;-45
2021/09/08 10:28:15;;;;;;;24.80;7.88;;;31.80;60.80;;;;;;5114343;27;20525;-47
2021/09/08 10:30:42;;;;;;;31.88;8.07;;;31.80;60.60;;;;;;5122506;27;20159;-48
2021/09/08 10:33:10;;;;;;;26.85;8.05;;;31.80;61.30;;;;;;5099673;27;20114;-50
2021/09/08 10:35:39;;;;;;;26.33;8.65;;;31.80;61.50;;;;;;5117537;27;20479;-44
2021/09/08 10:38:12;;;;;;;24.27;7.53;;;31.70;60.90;;;;;;5116958;27;20142;-47
2021/09/08 10:40:41;;;;;;;22.20;7.90;;;31.60;62.00;;;;;;5115267;27;20095;-46
2021/09/08 10:43:07;;;;;;;24.90;7.60;;;31.70;61.90;;;;;;5120700;27;20539;-46
2021/09/08 10:45:34;;;;;;;30.60;8.38;;;31.70;62.10;;;;;;5115405;27;20125;-47
2021/09/08 10:48:03;;;;;;;21.60;7.65;;;31.70;62.90;;;;;;5116952;27;20175;-46
2021/09/08 10:50:35;;;;;;;21.70;7.68;;;31.70;63.10;;;;;;5114291;27;20081;-47
2021/09/08 10:53:27;;;;;;;28.30;7.68;;;31.60;63.20;;;;;;5119316;27;20072;-46
2021/09/08 10:55:54;;;;;;;31.42;8.18;;;31.60;63.00;;;;;;5119267;27;20090;-47
2021/09/08 10:58:21;;;;;;;31.40;8.32;;;31.60;63.10;;;;;;5117866;27;20088;-49
2021/09/08 11:00:49;;;;;;;27.48;8.98;;;31.60;63.30;;;;;;5117137;27;20154;-48
2021/09/08 11:03:16;;;;;;;30.58;8.70;;;31.60;64.20;;;;;;5115347;27;20079;-45
2021/09/08 11:05:49;;;;;;;36.97;9.50;;;31.60;64.30;;;;;;5114447;27;20125;-47
2021/09/08 11:08:25;;;;;;;32.22;10.65;;;31.50;64.20;;;;;;5116700;27;20072;-45
2021/09/08 11:11:05;;;;;;;30.37;11.20;;;31.50;64.30;;;;;;5117492;27;20083;-44
2021/09/08 11:13:31;;;;;;;23.80;8.90;;;31.40;65.10;;;;;;5116988;27;20344;-46
2021/09/08 11:15:58;;;;;;;18.50;6.88;;;31.40;65.60;;;;;;5119712;27;20394;-47
2021/09/08 11:18:34;;;;;;;20.92;6.03;;;31.30;66.60;;;;;;5116712;27;20127;-45
2021/09/08 11:21:05;;;;;;;15.63;6.43;;;31.30;67.70;;;;;;5114171;27;20552;-46
2021/09/08 11:23:33;;;;;;;16.10;6.40;;;31.20;67.30;;;;;;5120787;27;20076;-47
2021/09/08 11:26:11;;;;;;;22.83;6.35;;;31.10;67.40;;;;;;5117249;27;20158;-45
2021/09/08 11:28:39;;;;;;;38.25;8.30;;;30.90;68.10;;;;;;5113525;27;20083;-45
2021/09/08 11:31:13;;;;;;;29.27;7.13;;;30.80;68.70;;;;;;5116958;27;20075;-45
2021/09/08 11:33:40;;;;;;;28.13;6.47;;;30.70;69.10;;;;;;5118334;27;20109;-45
2021/09/08 11:36:17;;;;;;;25.80;6.28;;;30.80;67.90;;;;;;5117579;27;20114;-46
2021/09/08 11:38:50;;;;;;;21.00;5.90;;;30.90;67.20;;;;;;5117038;27;20097;-46
2021/09/08 11:41:18;;;;;;;37.33;5.95;;;30.90;67.30;;;;;;5114028;27;20083;-45
2021/09/08 11:43:50;;;;;;;36.15;5.32;;;30.90;69.60;;;;;;5114693;27;20556;-48
2021/09/08 11:46:18;;;;;;;24.73;5.00;;;31.00;70.70;;;;;;5114751;27;20075;-47
2021/09/08 11:48:47;;;;;;;21.85;5.22;;;30.90;71.40;;;;;;5115489;27;20077;-46
2021/09/08 11:51:16;;;;;;;27.00;5.20;;;30.90;72.60;;;;;;5116041;27;20071;-46
2021/09/08 11:53:43;;;;;;;28.83;4.50;;;30.90;74.10;;;;;;5115893;27;20085;-45
2021/09/08 11:56:15;;;;;;;31.83;5.32;;;30.90;76.00;;;;;;5114491;27;20076;-45
2021/09/08 11:58:43;;;;;;;40.20;6.10;;;30.90;78.10;;;;;;5114205;27;20110;-46
2021/09/08 12:01:12;;;;;;;53.22;7.75;;;30.90;79.60;;;;;;5120057;27;20079;-47
2021/09/08 12:03:43;;;;;;;94.65;11.32;;;30.90;82.10;;;;;;5117360;27;20084;-47
2021/09/08 12:06:21;;;;;;;129.57;14.20;;;30.90;84.40;;;;;;5117635;27;20072;-48
2021/09/08 12:09:12;;;;;;;155.63;16.55;;;30.90;85.10;;;;;;5111573;27;20084;-44
2021/09/08 12:11:48;;;;;;;131.35;16.23;;;30.80;85.00;;;;;;5115024;27;20114;-45
2021/09/08 12:14:27;;;;;;;158.27;16.40;;;30.70;86.70;;;;;;5114153;27;20169;-45
2021/09/08 12:16:56;;;;;;;178.20;19.58;;;30.60;87.50;;;;;;5117080;27;20079;-44
2021/09/08 12:19:41;;;;;;;185.05;19.67;;;30.50;88.70;;;;;;5119967;27;20095;-44
2021/09/08 12:22:15;;;;;;;192.02;20.30;;;30.40;89.70;;;;;;5115214;27;20076;-46
2021/09/08 12:24:49;;;;;;;184.70;19.98;;;30.70;99.90;;;;;;5112951;27;20408;-46
2021/09/08 12:27:46;;;;;;;208.38;22.45;;;30.20;88.00;;;;;;5098121;27;20183;-45
2021/09/08 12:30:16;;;;;;;179.38;22.73;;;30.10;90.70;;;;;;5115806;27;20080;-46
2021/09/08 12:32:44;;;;;;;153.90;17.98;;;30.10;91.30;;;;;;5118562;27;20068;-44
2021/09/08 12:35:29;;;;;;;216.35;17.20;;;30.00;87.00;;;;;;5114494;27;20084;-48
2021/09/08 12:37:56;;;;;;;308.50;22.95;;;29.90;83.10;;;;;;5112376;27;20100;-48
2021/09/08 12:40:22;;;;;;;302.55;23.20;;;29.90;82.10;;;;;;5111918;27;20155;-46